createdAt,value
2018-04-18T00:00:56.584Z,72.81
2018-04-18T00:05:59.058Z,72.76
2018-04-18T00:11:01.520Z,72.93
2018-04-18T00:16:04.065Z,72.78
2018-04-18T00:21:06.622Z,72.79
2018-04-18T00:26:09.243Z,72.87
2018-04-18T00:31:11.822Z,73.21
2018-04-18T00:36:18.593Z,73.48
2018-04-18T00:41:21.333Z,73.69
2018-04-18T00:46:25.997Z,73.81
2018-04-18T00:51:28.572Z,73.77
2018-04-18T00:56:32.467Z,73.85
2018-04-18T01:01:35.282Z,73.87
2018-04-18T01:06:37.869Z,74.09
2018-04-18T01:11:40.393Z,74.40
2018-04-18T01:16:42.928Z,74.36
2018-04-18T01:21:45.411Z,74.52
2018-04-18T01:26:47.894Z,74.46
2018-04-18T01:31:50.384Z,74.55
2018-04-18T01:36:52.846Z,74.80
2018-04-18T01:41:55.299Z,74.83
2018-04-18T01:46:57.777Z,74.80
2018-04-18T01:52:00.218Z,74.88
2018-04-18T01:57:02.729Z,74.92
2018-04-18T02:02:05.992Z,74.90
2018-04-18T02:07:08.545Z,74.96
2018-04-18T02:12:11.078Z,75.08
2018-04-18T02:17:13.613Z,75.02
2018-04-18T02:22:16.138Z,75.01
2018-04-18T02:27:18.654Z,75.14
2018-04-18T02:32:21.113Z,75.18
2018-04-18T02:37:23.653Z,75.26
2018-04-18T02:42:26.131Z,75.31
2018-04-18T02:47:29.281Z,75.27
2018-04-18T02:52:32.095Z,75.32
2018-04-18T02:57:34.605Z,75.36
2018-04-18T03:02:37.287Z,75.34
2018-04-18T03:07:39.799Z,75.33
2018-04-18T03:12:42.316Z,75.52
2018-04-18T03:17:44.837Z,75.61
2018-04-18T03:22:47.324Z,75.61
2018-04-18T03:27:49.786Z,75.53
2018-04-18T03:32:52.276Z,75.62
2018-04-18T03:37:54.733Z,75.79
2018-04-18T03:42:57.198Z,75.82
2018-04-18T03:47:59.680Z,75.72
2018-04-18T03:53:02.179Z,75.84
2018-04-18T03:58:05.073Z,75.75
2018-04-18T04:03:07.592Z,75.75
2018-04-18T04:08:10.146Z,75.70
2018-04-18T04:13:14.361Z,75.71
2018-04-18T04:18:28.724Z,75.72
2018-04-18T04:23:43.229Z,75.71
2018-04-18T04:28:47.857Z,75.58
2018-04-18T04:33:50.459Z,75.19
2018-04-18T04:38:52.911Z,74.59
2018-04-18T04:43:55.427Z,74.00
2018-04-18T04:48:58.033Z,73.28
2018-04-18T04:54:00.545Z,72.49
2018-04-18T04:59:03.226Z,71.37
2018-04-18T05:04:06.253Z,69.00
2018-04-18T05:09:09.361Z,66.59
2018-04-18T05:14:13.734Z,65.63
2018-04-18T05:19:16.248Z,54.39
2018-04-18T05:24:18.799Z,47.41
2018-04-18T05:29:21.257Z,43.07
2018-04-18T05:34:23.806Z,40.19
2018-04-18T05:39:26.285Z,37.75
2018-04-18T05:44:29.598Z,37.23
2018-04-18T05:49:32.098Z,36.27
2018-04-18T05:54:34.635Z,36.09
2018-04-18T05:59:41.181Z,34.02
2018-04-18T06:04:43.870Z,35.27
2018-04-18T06:09:47.739Z,30.72
2018-04-18T06:14:50.879Z,33.33
2018-04-18T06:19:54.112Z,34.66
2018-04-18T06:24:57.265Z,43.63
2018-04-18T06:29:59.794Z,47.36
2018-04-18T06:35:02.335Z,51.40
2018-04-18T06:40:05.647Z,54.33
2018-04-18T06:45:08.753Z,54.79
2018-04-18T06:50:11.251Z,54.38
2018-04-18T06:55:15.260Z,53.11
2018-04-18T07:00:17.728Z,53.63
2018-04-18T07:05:20.215Z,52.76
2018-04-18T07:10:22.685Z,52.88
2018-04-18T07:15:25.175Z,52.58
2018-04-18T07:20:27.681Z,51.72
2018-04-18T07:25:30.180Z,52.17
2018-04-18T07:30:32.663Z,51.14
2018-04-18T07:35:35.171Z,50.52
2018-04-18T07:40:37.675Z,50.11
2018-04-18T07:45:40.300Z,48.69
2018-04-18T07:50:59.811Z,47.87
2018-04-18T07:56:05.437Z,47.58
2018-04-18T08:01:08.043Z,47.26
2018-04-18T08:06:23.320Z,48.26
2018-04-18T08:11:25.799Z,45.57
2018-04-18T08:16:28.294Z,46.36
2018-04-18T08:21:30.774Z,45.28
2018-04-18T08:26:33.289Z,44.91
2018-04-18T08:31:35.999Z,44.12
2018-04-18T08:36:38.881Z,42.71
2018-04-18T08:41:41.375Z,41.37
2018-04-18T08:46:43.851Z,40.31
2018-04-18T08:51:46.335Z,40.47
2018-04-18T08:56:48.838Z,39.22
2018-04-18T09:01:51.326Z,38.51
2018-04-18T09:06:53.851Z,38.27
2018-04-18T09:11:56.319Z,33.08
2018-04-18T09:16:58.807Z,28.78
2018-04-18T09:22:01.308Z,28.40
2018-04-18T09:27:04.058Z,27.53
2018-04-18T09:32:06.640Z,27.14
2018-04-18T09:37:09.164Z,26.59
2018-04-18T09:42:11.679Z,26.01
2018-04-18T09:47:14.155Z,26.43
2018-04-18T09:52:16.638Z,26.60
2018-04-18T09:57:19.099Z,25.38
2018-04-18T10:02:27.243Z,27.28
2018-04-18T10:07:29.762Z,25.83
2018-04-18T10:12:32.231Z,25.84
2018-04-18T10:17:34.750Z,26.93
2018-04-18T10:22:37.483Z,27.17
2018-04-18T10:27:40.198Z,25.21
2018-04-18T10:32:42.839Z,27.22
2018-04-18T10:37:45.331Z,26.09
2018-04-18T10:42:47.802Z,22.82
2018-04-18T10:47:50.277Z,25.41
2018-04-18T10:52:52.811Z,22.57
2018-04-18T10:57:55.353Z,25.80
2018-04-18T11:02:57.856Z,25.52
2018-04-18T11:08:00.343Z,27.08
2018-04-18T11:13:02.839Z,26.62
2018-04-18T11:18:05.412Z,28.42
2018-04-18T11:23:10.147Z,29.35
2018-04-18T11:28:12.781Z,29.02
2018-04-18T12:06:09.356Z,29.00
2018-04-18T12:11:11.847Z,26.95
2018-04-18T12:16:14.357Z,27.32
2018-04-18T12:21:16.849Z,30.79
2018-04-18T12:26:19.338Z,28.00
2018-04-18T12:31:21.791Z,26.09
2018-04-18T12:36:24.251Z,26.14
2018-04-18T12:41:26.764Z,26.19
2018-04-18T12:46:29.244Z,26.56
2018-04-18T12:51:31.710Z,26.25
2018-04-18T12:56:35.447Z,27.51
2018-04-18T13:01:38.025Z,26.33
2018-04-18T13:06:40.588Z,26.39
2018-04-18T13:11:43.144Z,25.90
2018-04-18T13:16:45.621Z,24.82
2018-04-18T13:21:48.152Z,26.90
2018-04-18T13:26:50.788Z,25.96
2018-04-18T13:31:53.285Z,25.79
2018-04-18T13:36:55.731Z,25.29
2018-04-18T13:41:58.226Z,24.78
2018-04-18T13:47:00.868Z,26.71
2018-04-18T13:52:03.369Z,26.32
2018-04-18T13:57:05.960Z,25.43
2018-04-18T14:02:14.282Z,26.08
2018-04-18T14:07:16.719Z,26.57
2018-04-18T14:12:19.553Z,26.10
2018-04-18T14:17:22.055Z,25.91
2018-04-18T14:22:24.529Z,25.67
2018-04-18T14:27:27.040Z,25.35
2018-04-18T14:32:29.616Z,26.55
2018-04-18T14:37:32.087Z,25.33
2018-04-18T14:42:34.645Z,25.39
2018-04-18T14:47:37.236Z,24.41
2018-04-18T14:52:40.017Z,23.72
2018-04-18T14:57:42.534Z,24.23
2018-04-18T15:02:45.048Z,24.39
2018-04-18T15:07:47.529Z,24.56
2018-04-18T15:12:49.991Z,24.59
2018-04-18T15:17:52.443Z,23.94
2018-04-18T15:22:54.933Z,24.45
2018-04-18T15:27:57.452Z,24.92
2018-04-18T15:32:59.937Z,25.44
2018-04-18T15:38:02.406Z,25.38
2018-04-18T15:43:05.142Z,25.42
2018-04-18T15:48:10.578Z,25.73
2018-04-18T15:53:23.133Z,24.63
2018-04-18T15:58:25.637Z,24.39
2018-04-18T16:03:28.138Z,24.69
2018-04-18T16:08:30.627Z,25.22
2018-04-18T16:13:33.125Z,25.01
2018-04-18T16:18:35.760Z,24.92
2018-04-18T16:23:38.455Z,26.12
2018-04-18T16:28:41.223Z,25.46
2018-04-18T16:33:44.340Z,25.89
2018-04-18T16:38:46.806Z,26.39
2018-04-18T16:43:49.289Z,26.87
2018-04-18T16:48:59.647Z,26.64
2018-04-18T16:54:02.141Z,26.61
2018-04-18T16:59:04.721Z,27.47
2018-04-18T17:04:07.481Z,27.76
2018-04-18T17:09:10.285Z,27.84
2018-04-18T17:14:12.949Z,28.25
2018-04-18T17:19:15.466Z,28.50
2018-04-18T17:24:17.966Z,28.45
2018-04-18T17:29:20.572Z,29.47
2018-04-18T17:34:23.340Z,29.59
2018-04-18T17:39:26.427Z,30.21
2018-04-18T17:44:28.915Z,30.32
2018-04-18T17:49:31.393Z,31.12
2018-04-18T17:54:33.944Z,32.43
2018-04-18T17:59:40.612Z,33.72
2018-04-18T18:04:43.582Z,34.75
2018-04-18T18:09:46.961Z,36.17
2018-04-18T18:14:49.788Z,37.02
2018-04-18T18:19:52.252Z,38.20
2018-04-18T18:24:54.727Z,39.76
2018-04-18T18:29:57.183Z,41.24
2018-04-18T18:35:02.207Z,41.79
2018-04-18T18:40:05.302Z,42.14
2018-04-18T18:45:08.083Z,43.33
2018-04-18T18:50:10.686Z,43.90
2018-04-18T18:55:13.248Z,44.05
2018-04-18T19:00:15.724Z,44.75
2018-04-18T19:05:18.184Z,45.11
2018-04-18T19:10:20.664Z,46.20
2018-04-18T19:15:23.144Z,46.81
2018-04-18T19:20:25.647Z,47.81
2018-04-18T19:25:28.119Z,48.62
2018-04-18T19:30:30.586Z,50.04
2018-04-18T19:35:33.070Z,50.06
2018-04-18T19:40:35.676Z,50.52
2018-04-18T19:45:38.195Z,51.06
2018-04-18T19:50:40.734Z,51.67
2018-04-18T19:55:43.417Z,52.69
2018-04-18T20:00:45.902Z,52.91
2018-04-18T20:06:01.003Z,53.25
2018-04-18T20:11:05.866Z,53.71
2018-04-18T20:16:08.418Z,54.67
2018-04-18T20:21:10.942Z,54.73
2018-04-18T20:26:13.461Z,55.13
2018-04-18T20:31:15.958Z,55.45
2018-04-18T20:36:18.484Z,55.78
2018-04-18T20:41:21.445Z,56.54
2018-04-18T20:46:24.717Z,56.87
2018-04-18T20:51:27.168Z,56.98
2018-04-18T20:56:29.641Z,57.33
2018-04-18T21:01:32.126Z,58.42
2018-04-18T21:06:35.680Z,58.38
2018-04-18T21:11:38.649Z,58.91
2018-04-18T21:16:41.173Z,59.38
2018-04-18T21:21:43.668Z,59.65
2018-04-18T21:26:46.305Z,59.91
2018-04-18T21:31:48.794Z,60.05
2018-04-18T21:36:51.298Z,60.71
2018-04-18T21:41:53.906Z,60.97
2018-04-18T21:46:56.435Z,61.04
2018-04-18T21:51:58.903Z,61.06
2018-04-18T21:57:01.451Z,61.71
2018-04-18T22:07:47.072Z,62.59
2018-04-18T22:13:06.529Z,63.12
2018-04-18T22:18:09.040Z,63.18
2018-04-18T22:23:11.592Z,63.48
2018-04-18T22:28:14.162Z,64.01
2018-04-18T22:33:16.624Z,64.39
2018-04-18T22:38:19.096Z,65.03
2018-04-18T22:43:23.026Z,65.23
2018-04-18T22:48:25.520Z,65.58
2018-04-18T22:53:27.990Z,65.83
2018-04-18T22:58:30.464Z,66.01
2018-04-18T23:03:32.939Z,66.39
2018-04-18T23:08:35.606Z,66.73
2018-04-18T23:13:38.098Z,67.13
2018-04-18T23:18:40.669Z,67.24
2018-04-18T23:23:43.156Z,67.35
2018-04-18T23:28:45.688Z,67.86
2018-04-18T23:33:48.177Z,68.19
2018-04-18T23:38:50.644Z,68.30
2018-04-18T23:43:53.101Z,68.22
2018-04-18T23:48:55.642Z,68.38
2018-04-18T23:53:58.143Z,69.13
2018-04-18T23:59:00.605Z,69.08
